메인 페이지
METAR-TAF:

METAR-TAF

공항 :

Tyndall Air Force Base

패너마시티, 플로리다, 미국

위도: 30-04N, 경도: 085-35W, 고도: 5m

현재 날씨관측

예보는 57분 전, 22:56시(UTC)에 발표되었습니다.
12kt
온도 25°C
습도 74%
기압 1005 hPa
시정: 16.1km
맑음

METAR: KPAM 312256Z AUTO 28012KT 10SM CLR 25/20 A2969 RMK AO2 SLP057 T02460196 $

시각: 18:53 (23:53 UTC)

예보

예보는 4 시간 53분 전, 19:00시(UTC)에 발표되었습니다.
예보 대상 시간: 31일 19시부터 02일 01시까지 (UTC)
남남서25kt, 순간 최대 풍속 30kt
시정: 9000m
고도 1500ft 상공 구름 많음
고도 8500ft 상공 구름 많음, 적란운.
소나기, 시계 내 뇌우
일시적
31일 19시부터 31일 21시까지 (UTC)
남남서25kt, 순간 최대 풍속 35kt
시정: 1600m
고도 1000ft 상공 구름 많음
고도 8000ft 상공 흐림, 적란운.
뇌우, 강한비
전환 중
31일 21시부터 31일 22시까지 (UTC)
서북서15kt, 순간 최대 풍속 25kt
시정 10km 이상
고도 3000ft 상공 구름 보통
전환 중
01일 02시부터 01일 03시까지 (UTC)
북북서12kt
시정: 0111m
고도 3500ft 상공 구름 조금

TAF: KPAM 311900Z 3119/0201 20025G30KT 9000 SHRA VCTS BKN015 BKN085CB QNH2964INS TEMPO 3119/3121 21025G35KT 1600 +TSRA BKN010 OVC080CB BECMG 3121/3122 29015G25KT 9999 NSW SCT030 QNH2964INS BECMG 0102/0103 33012KT 9999 FEW035 QNH2978INS TX26/3119Z TN10/0112Z LAST NO AMDS AFT 3122 NEXT 0111

4,000개 이상의 공항 관측 자료 및 예보 (METAR 및 TAF 보고).

지도상에서 검색 가능한 기상관측소가 노란 점과 빨간 점으로 표시되어 있습니다.

기상관측소 명을 보려면 표시 위로 마우스를 이동하세요.

날씨 관측과 예보를 보려면 클릭하세요.

지도 변경 : 확대하려면 엑스 표시가 있는 녹색 버튼, 축소하려면 빼기 표시가 있는 녹색 버튼, 다음 페이지의 지도를 보려면 녹색 화살표를 클릭하세요.


METAR-TAF: